sensor_id;sensor_type;location;lat;lon;timestamp;pressure;altitude;pressure_sealevel;temperature;humidity
73143;BME280;61343;53.694;9.988;2022-08-01T00:02:15;100959.03;;;18.08;93.48
73143;BME280;61343;53.694;9.988;2022-08-01T00:04:40;100958.19;;;18.07;93.52
73143;BME280;61343;53.694;9.988;2022-08-01T00:07:05;100956.31;;;18.08;93.26
73143;BME280;61343;53.694;9.988;2022-08-01T00:09:31;100969.84;;;18.08;93.78
73143;BME280;61343;53.694;9.988;2022-08-01T00:11:56;100964.72;;;18.06;93.90
73143;BME280;61343;53.694;9.988;2022-08-01T00:14:21;100968.16;;;18.02;94.29
73143;BME280;61343;53.694;9.988;2022-08-01T00:16:47;100966.84;;;18.04;94.31
73143;BME280;61343;53.694;9.988;2022-08-01T00:19:12;100958.97;;;18.03;94.24
73143;BME280;61343;53.694;9.988;2022-08-01T00:21:38;100962.19;;;18.00;94.50
73143;BME280;61343;53.694;9.988;2022-08-01T00:24:03;100960.63;;;18.04;94.33
73143;BME280;61343;53.694;9.988;2022-08-01T00:26:28;100961.22;;;18.11;93.71
73143;BME280;61343;53.694;9.988;2022-08-01T00:28:53;100960.63;;;18.04;94.15
73143;BME280;61343;53.694;9.988;2022-08-01T00:31:19;100962.75;;;18.02;94.07
73143;BME280;61343;53.694;9.988;2022-08-01T00:33:44;100956.81;;;18.05;94.28
73143;BME280;61343;53.694;9.988;2022-08-01T00:36:09;100956.78;;;18.00;94.81
73143;BME280;61343;53.694;9.988;2022-08-01T00:38:34;100958.44;;;18.01;95.38
73143;BME280;61343;53.694;9.988;2022-08-01T00:41:00;100962.25;;;18.05;94.22
73143;BME280;61343;53.694;9.988;2022-08-01T00:43:25;100956.81;;;18.05;94.16
73143;BME280;61343;53.694;9.988;2022-08-01T00:45:50;100960.00;;;17.97;94.82
73143;BME280;61343;53.694;9.988;2022-08-01T00:48:16;100961.66;;;17.98;94.61
73143;BME280;61343;53.694;9.988;2022-08-01T00:50:41;100961.06;;;17.96;94.48
73143;BME280;61343;53.694;9.988;2022-08-01T00:53:06;100967.06;;;17.98;94.54
73143;BME280;61343;53.694;9.988;2022-08-01T00:55:32;100960.00;;;17.97;94.60
73143;BME280;61343;53.694;9.988;2022-08-01T00:57:58;100962.19;;;18.00;94.16
73143;BME280;61343;53.694;9.988;2022-08-01T01:00:23;100956.75;;;17.95;94.61
73143;BME280;61343;53.694;9.988;2022-08-01T01:02:49;100968.38;;;17.95;94.82
73143;BME280;61343;53.694;9.988;2022-08-01T01:05:14;100960.00;;;17.97;94.42
73143;BME280;61343;53.694;9.988;2022-08-01T01:10:42;100967.34;;;18.01;94.46
73143;BME280;61343;53.694;9.988;2022-08-01T01:13:16;100968.44;;;18.00;94.12
73143;BME280;61343;53.694;9.988;2022-08-01T01:15:47;100971.06;;;17.95;94.40
73143;BME280;61343;53.694;9.988;2022-08-01T01:18:20;100965.22;;;18.03;93.78
73143;BME280;61343;53.694;9.988;2022-08-01T01:20:54;100970.28;;;17.95;93.82
73143;BME280;61343;53.694;9.988;2022-08-01T01:28:34;100969.50;;;17.99;94.23
73143;BME280;61343;53.694;9.988;2022-08-01T01:31:02;100970.28;;;17.95;93.98
73143;BME280;61343;53.694;9.988;2022-08-01T01:33:29;100967.59;;;17.95;94.20
73143;BME280;61343;53.694;9.988;2022-08-01T01:36:04;100967.28;;;17.91;94.62
73143;BME280;61343;53.694;9.988;2022-08-01T01:38:34;100968.59;;;17.89;94.53
73143;BME280;61343;53.694;9.988;2022-08-01T01:41:02;100973.00;;;17.95;94.04
73143;BME280;61343;53.694;9.988;2022-08-01T01:43:29;100973.94;;;17.83;95.03
73143;BME280;61343;53.694;9.988;2022-08-01T01:45:56;100976.88;;;17.77;95.39
73143;BME280;61343;53.694;9.988;2022-08-01T01:48:23;100977.44;;;17.79;95.26
73143;BME280;61343;53.694;9.988;2022-08-01T01:50:49;100980.38;;;17.77;95.13
73143;BME280;61343;53.694;9.988;2022-08-01T01:53:17;100984.22;;;17.81;95.04
73143;BME280;61343;53.694;9.988;2022-08-01T01:55:45;100982.53;;;17.75;94.94
73143;BME280;61343;53.694;9.988;2022-08-01T01:58:13;100992.84;;;17.78;95.07
73143;BME280;61343;53.694;9.988;2022-08-01T02:00:40;100993.66;;;17.79;94.66
73143;BME280;61343;53.694;9.988;2022-08-01T02:03:08;100987.19;;;17.80;94.88
73143;BME280;61343;53.694;9.988;2022-08-01T02:05:36;100987.94;;;17.75;94.67
73143;BME280;61343;53.694;9.988;2022-08-01T02:08:03;100993.84;;;17.72;95.02
73143;BME280;61343;53.694;9.988;2022-08-01T02:10:31;100996.09;;;17.80;94.62
73143;BME280;61343;53.694;9.988;2022-08-01T02:12:57;100989.56;;;17.76;94.84
73143;BME280;61343;53.694;9.988;2022-08-01T02:15:27;100997.69;;;17.76;94.66
73143;BME280;61343;53.694;9.988;2022-08-01T02:17:53;100991.78;;;17.79;94.72
73143;BME280;61343;53.694;9.988;2022-08-01T02:20:20;100985.28;;;17.80;94.73
73143;BME280;61343;53.694;9.988;2022-08-01T02:22:53;100990.13;;;17.78;94.78
73143;BME280;61343;53.694;9.988;2022-08-01T02:25:27;100989.00;;;17.74;94.76
73143;BME280;61343;53.694;9.988;2022-08-01T02:28:07;100989.00;;;17.74;94.83
73143;BME280;61343;53.694;9.988;2022-08-01T02:30:36;100984.09;;;17.71;94.99
73143;BME280;61343;53.694;9.988;2022-08-01T02:33:18;100988.19;;;17.74;94.75
73143;BME280;61343;53.694;9.988;2022-08-01T02:35:49;100994.41;;;17.74;94.75
73143;BME280;61343;53.694;9.988;2022-08-01T02:38:16;100994.69;;;17.73;94.73
73143;BME280;61343;53.694;9.988;2022-08-01T02:40:45;100985.69;;;17.67;95.01
73143;BME280;61343;53.694;9.988;2022-08-01T02:43:13;100991.66;;;17.69;95.02
73143;BME280;61343;53.694;9.988;2022-08-01T02:45:43;100992.16;;;17.66;95.09
73143;BME280;61343;53.694;9.988;2022-08-01T02:48:12;100995.44;;;17.68;94.90
73143;BME280;61343;53.694;9.988;2022-08-01T02:50:42;100996.50;;;17.67;95.03
73143;BME280;61343;53.694;9.988;2022-08-01T02:53:11;100995.13;;;17.65;95.07
73143;BME280;61343;53.694;9.988;2022-08-01T02:55:39;100991.09;;;17.67;94.89
73143;BME280;61343;53.694;9.988;2022-08-01T02:58:06;100998.94;;;17.69;94.54
73143;BME280;61343;53.694;9.988;2022-08-01T03:00:34;100999.22;;;17.67;94.76
73143;BME280;61343;53.694;9.988;2022-08-01T03:03:01;100996.19;;;17.64;94.98
73143;BME280;61343;53.694;9.988;2022-08-01T03:05:28;101001.97;;;17.72;94.51
73143;BME280;61343;53.694;9.988;2022-08-01T03:07:55;101001.88;;;17.62;94.97
73143;BME280;61343;53.694;9.988;2022-08-01T03:10:24;100996.75;;;17.66;94.70
73143;BME280;61343;53.694;9.988;2022-08-01T03:12:52;100999.72;;;17.64;94.65
73143;BME280;61343;53.694;9.988;2022-08-01T03:15:18;101005.63;;;17.61;95.14
73143;BME280;61343;53.694;9.988;2022-08-01T03:17:45;101007.78;;;17.59;95.32
73143;BME280;61343;53.694;9.988;2022-08-01T03:20:14;101003.44;;;17.58;95.11
73143;BME280;61343;53.694;9.988;2022-08-01T03:22:42;101006.78;;;17.65;94.50
73143;BME280;61343;53.694;9.988;2022-08-01T03:25:09;101009.41;;;17.60;94.61
73143;BME280;61343;53.694;9.988;2022-08-01T03:27:36;101014.56;;;17.62;94.60
73143;BME280;61343;53.694;9.988;2022-08-01T03:30:04;101018.59;;;17.59;94.12
73143;BME280;61343;53.694;9.988;2022-08-01T03:32:30;101023.78;;;17.66;94.46
73143;BME280;61343;53.694;9.988;2022-08-01T03:34:56;101022.94;;;17.60;94.20
73143;BME280;61343;53.694;9.988;2022-08-01T03:37:41;101021.81;;;17.56;94.83
73143;BME280;61343;53.694;9.988;2022-08-01T03:40:14;101023.69;;;17.56;94.50
73143;BME280;61343;53.694;9.988;2022-08-01T03:42:47;101023.84;;;17.49;94.57
73143;BME280;61343;53.694;9.988;2022-08-01T03:45:25;101019.59;;;17.53;94.46
73143;BME280;61343;53.694;9.988;2022-08-01T03:47:56;101016.66;;;17.55;94.35
73143;BME280;61343;53.694;9.988;2022-08-01T03:50:24;101015.47;;;17.51;94.74
73143;BME280;61343;53.694;9.988;2022-08-01T03:52:51;101027.38;;;17.50;94.69
73143;BME280;61343;53.694;9.988;2022-08-01T03:55:18;101032.50;;;17.51;94.34
73143;BME280;61343;53.694;9.988;2022-08-01T03:57:46;101033.59;;;17.50;94.52
73143;BME280;61343;53.694;9.988;2022-08-01T04:00:12;101033.03;;;17.48;94.74
73143;BME280;61343;53.694;9.988;2022-08-01T04:02:38;101033.84;;;17.49;94.85
73143;BME280;61343;53.694;9.988;2022-08-01T04:05:04;101034.97;;;17.53;94.40
73143;BME280;61343;53.694;9.988;2022-08-01T04:07:32;101041.22;;;17.53;94.12
73143;BME280;61343;53.694;9.988;2022-08-01T04:09:57;101037.22;;;17.56;94.32
73143;BME280;61343;53.694;9.988;2022-08-01T04:12:23;101051.56;;;17.56;94.44
73143;BME280;61343;53.694;9.988;2022-08-01T04:14:49;101055.31;;;17.55;94.48
73143;BME280;61343;53.694;9.988;2022-08-01T04:17:17;101048.19;;;17.49;94.77
73143;BME280;61343;53.694;9.988;2022-08-01T04:19:43;101054.41;;;17.50;94.37
73143;BME280;61343;53.694;9.988;2022-08-01T04:22:10;101058.22;;;17.54;94.49
73143;BME280;61343;53.694;9.988;2022-08-01T04:24:36;101058.75;;;17.51;94.38
73143;BME280;61343;53.694;9.988;2022-08-01T04:27:05;101062.03;;;17.53;94.56
73143;BME280;61343;53.694;9.988;2022-08-01T04:29:31;101061.72;;;17.49;94.31
73143;BME280;61343;53.694;9.988;2022-08-01T04:31:58;101073.09;;;17.51;94.45
73143;BME280;61343;53.694;9.988;2022-08-01T04:34:26;101080.13;;;17.52;94.21
73143;BME280;61343;53.694;9.988;2022-08-01T04:36:54;101081.69;;;17.48;94.49
73143;BME280;61343;53.694;9.988;2022-08-01T04:39:22;101090.06;;;17.47;94.50
73143;BME280;61343;53.694;9.988;2022-08-01T04:41:48;101084.66;;;17.47;94.65
73143;BME280;61343;53.694;9.988;2022-08-01T04:44:15;101089.50;;;17.45;94.69
73143;BME280;61343;53.694;9.988;2022-08-01T04:46:42;101091.94;;;17.46;94.70
73143;BME280;61343;53.694;9.988;2022-08-01T04:49:08;101088.19;;;17.47;94.32
73143;BME280;61343;53.694;9.988;2022-08-01T04:51:37;101095.47;;;17.47;94.42
73143;BME280;61343;53.694;9.988;2022-08-01T04:54:14;101092.50;;;17.48;94.38
73143;BME280;61343;53.694;9.988;2022-08-01T04:56:39;101097.13;;;17.48;94.23
73143;BME280;61343;53.694;9.988;2022-08-01T04:59:04;101097.28;;;17.41;93.77
73143;BME280;61343;53.694;9.988;2022-08-01T05:01:49;101107.63;;;17.44;94.05
73143;BME280;61343;53.694;9.988;2022-08-01T05:04:15;101099.91;;;17.36;94.56
73143;BME280;61343;53.694;9.988;2022-08-01T05:06:40;101095.00;;;17.33;94.78
73143;BME280;61343;53.694;9.988;2022-08-01T05:09:05;101097.41;;;17.29;95.05
73143;BME280;61343;53.694;9.988;2022-08-01T05:11:31;101096.31;;;17.30;95.17
73143;BME280;61343;53.694;9.988;2022-08-01T05:13:56;101098.78;;;17.32;95.11
73143;BME280;61343;53.694;9.988;2022-08-01T05:16:21;101096.16;;;17.37;94.18
73143;BME280;61343;53.694;9.988;2022-08-01T05:18:46;101100.50;;;17.38;94.62
73143;BME280;61343;53.694;9.988;2022-08-01T05:21:12;101106.63;;;17.34;94.58
73143;BME280;61343;53.694;9.988;2022-08-01T05:23:37;101101.22;;;17.34;94.74
73143;BME280;61343;53.694;9.988;2022-08-01T05:26:02;101103.69;;;17.35;94.69
73143;BME280;61343;53.694;9.988;2022-08-01T05:28:29;101109.72;;;17.42;94.82
73143;BME280;61343;53.694;9.988;2022-08-01T05:30:55;101114.63;;;17.45;94.38
73143;BME280;61343;53.694;9.988;2022-08-01T05:33:20;101117.84;;;17.42;94.62
73143;BME280;61343;53.694;9.988;2022-08-01T05:35:46;101131.50;;;17.52;93.88
73143;BME280;61343;53.694;9.988;2022-08-01T05:38:12;101115.78;;;17.49;92.72
73143;BME280;61343;53.694;9.988;2022-08-01T05:40:37;101127.66;;;17.48;93.27
73143;BME280;61343;53.694;9.988;2022-08-01T05:43:02;101126.59;;;17.49;92.67
73143;BME280;61343;53.694;9.988;2022-08-01T05:45:27;101122.94;;;17.55;92.32
73143;BME280;61343;53.694;9.988;2022-08-01T05:47:54;101127.84;;;17.58;92.38
73143;BME280;61343;53.694;9.988;2022-08-01T05:50:19;101132.19;;;17.59;91.85
73143;BME280;61343;53.694;9.988;2022-08-01T05:52:44;101136.50;;;17.60;92.11
73143;BME280;61343;53.694;9.988;2022-08-01T05:55:09;101141.50;;;17.68;91.35
73143;BME280;61343;53.694;9.988;2022-08-01T05:57:35;101149.69;;;17.73;90.92
73143;BME280;61343;53.694;9.988;2022-08-01T06:00:00;101144.97;;;17.64;91.61
73143;BME280;61343;53.694;9.988;2022-08-01T06:02:25;101140.88;;;17.61;91.07
73143;BME280;61343;53.694;9.988;2022-08-01T06:04:51;101157.28;;;17.55;91.68
73143;BME280;61343;53.694;9.988;2022-08-01T06:07:16;101153.00;;;17.42;91.77
73143;BME280;61343;53.694;9.988;2022-08-01T06:09:41;101148.25;;;17.49;92.18
73143;BME280;61343;53.694;9.988;2022-08-01T06:12:07;101165.28;;;17.50;91.38
73143;BME280;61343;53.694;9.988;2022-08-01T06:14:32;101161.50;;;17.51;91.50
73143;BME280;61343;53.694;9.988;2022-08-01T06:16:57;101161.50;;;17.51;91.85
73143;BME280;61343;53.694;9.988;2022-08-01T06:19:23;101159.06;;;17.49;92.12
73143;BME280;61343;53.694;9.988;2022-08-01T06:21:48;101162.69;;;17.55;91.81
73143;BME280;61343;53.694;9.988;2022-08-01T06:24:13;101153.75;;;17.54;91.64
73143;BME280;61343;53.694;9.988;2022-08-01T06:26:39;101162.19;;;17.41;91.95
73143;BME280;61343;53.694;9.988;2022-08-01T06:29:04;101173.06;;;17.46;91.95
73143;BME280;61343;53.694;9.988;2022-08-01T06:31:29;101170.38;;;17.46;91.94
73143;BME280;61343;53.694;9.988;2022-08-01T06:33:56;101170.06;;;17.59;90.80
73143;BME280;61343;53.694;9.988;2022-08-01T06:36:22;101172.44;;;17.56;91.18
73143;BME280;61343;53.694;9.988;2022-08-01T06:38:47;101180.94;;;17.48;90.57
73143;BME280;61343;53.694;9.988;2022-08-01T06:41:12;101174.06;;;17.40;91.38
73143;BME280;61343;53.694;9.988;2022-08-01T06:43:38;101178.91;;;17.38;90.33
73143;BME280;61343;53.694;9.988;2022-08-01T06:46:03;101180.13;;;17.30;90.46
73143;BME280;61343;53.694;9.988;2022-08-01T06:48:29;101184.72;;;17.30;91.23
73143;BME280;61343;53.694;9.988;2022-08-01T06:50:54;101183.72;;;17.36;90.77
73143;BME280;61343;53.694;9.988;2022-08-01T06:53:33;101183.72;;;17.36;90.96
73143;BME280;61343;53.694;9.988;2022-08-01T06:55:59;101187.59;;;17.40;91.55
73143;BME280;61343;53.694;9.988;2022-08-01T06:58:24;101186.44;;;17.36;90.97
73143;BME280;61343;53.694;9.988;2022-08-01T07:00:49;101190.22;;;17.35;90.96
73143;BME280;61343;53.694;9.988;2022-08-01T07:03:15;101192.81;;;17.30;89.88
73143;BME280;61343;53.694;9.988;2022-08-01T07:05:40;101192.84;;;17.13;90.68
73143;BME280;61343;53.694;9.988;2022-08-01T07:08:06;101198.25;;;17.13;90.63
73143;BME280;61343;53.694;9.988;2022-08-01T07:10:31;101202.81;;;17.13;91.14
73143;BME280;61343;53.694;9.988;2022-08-01T07:12:56;101200.59;;;17.10;90.76
73143;BME280;61343;53.694;9.988;2022-08-01T07:15:22;101204.47;;;17.14;90.64
73143;BME280;61343;53.694;9.988;2022-08-01T07:17:51;101205.63;;;17.18;90.55
73143;BME280;61343;53.694;9.988;2022-08-01T07:20:17;101206.41;;;17.18;90.36
73143;BME280;61343;53.694;9.988;2022-08-01T07:22:42;101216.19;;;17.19;90.20
73143;BME280;61343;53.694;9.988;2022-08-01T07:25:08;101217.00;;;17.20;89.63
73143;BME280;61343;53.694;9.988;2022-08-01T07:27:34;101216.09;;;17.31;89.50
73143;BME280;61343;53.694;9.988;2022-08-01T07:29:59;101217.91;;;17.25;90.06
73143;BME280;61343;53.694;9.988;2022-08-01T07:32:25;101224.47;;;17.29;89.43
73143;BME280;61343;53.694;9.988;2022-08-01T07:34:50;101227.16;;;17.29;88.86
73143;BME280;61343;53.694;9.988;2022-08-01T07:37:16;101226.91;;;17.31;88.86
73143;BME280;61343;53.694;9.988;2022-08-01T07:39:41;101229.03;;;17.29;89.52
73143;BME280;61343;53.694;9.988;2022-08-01T07:42:06;101235.84;;;17.32;89.11
73143;BME280;61343;53.694;9.988;2022-08-01T07:44:32;101244.84;;;17.37;88.23
73143;BME280;61343;53.694;9.988;2022-08-01T07:46:57;101243.78;;;17.38;88.19
73143;BME280;61343;53.694;9.988;2022-08-01T07:49:22;101241.09;;;17.38;86.83
73143;BME280;61343;53.694;9.988;2022-08-01T07:51:48;101241.66;;;17.40;86.05
73143;BME280;61343;53.694;9.988;2022-08-01T07:54:13;101263.84;;;17.42;86.76
73143;BME280;61343;53.694;9.988;2022-08-01T07:56:39;101259.28;;;17.43;86.80
73143;BME280;61343;53.694;9.988;2022-08-01T07:59:04;101265.56;;;17.48;86.36
73143;BME280;61343;53.694;9.988;2022-08-01T08:01:30;101276.88;;;17.45;85.73
73143;BME280;61343;53.694;9.988;2022-08-01T08:03:55;101272.38;;;17.34;86.39
73143;BME280;61343;53.694;9.988;2022-08-01T08:06:20;101274.44;;;17.27;85.77
73143;BME280;61343;53.694;9.988;2022-08-01T08:08:46;101281.13;;;17.24;86.20
73143;BME280;61343;53.694;9.988;2022-08-01T08:11:12;101288.81;;;17.16;86.44
73143;BME280;61343;53.694;9.988;2022-08-01T08:13:37;101288.53;;;17.01;86.93
73143;BME280;61343;53.694;9.988;2022-08-01T08:16:02;101290.59;;;16.94;86.38
73143;BME280;61343;53.694;9.988;2022-08-01T08:18:28;101293.69;;;16.86;87.44
73143;BME280;61343;53.694;9.988;2022-08-01T08:20:53;101297.91;;;16.82;86.59
73143;BME280;61343;53.694;9.988;2022-08-01T08:23:18;101302.75;;;16.80;87.70
73143;BME280;61343;53.694;9.988;2022-08-01T08:26:22;101298.75;;;16.82;88.36
73143;BME280;61343;53.694;9.988;2022-08-01T08:28:48;101299.56;;;16.83;87.08
73143;BME280;61343;53.694;9.988;2022-08-01T08:31:14;101300.72;;;16.87;86.62
73143;BME280;61343;53.694;9.988;2022-08-01T08:33:39;101308.81;;;16.87;83.91
73143;BME280;61343;53.694;9.988;2022-08-01T08:36:04;101312.97;;;17.06;83.18
73143;BME280;61343;53.694;9.988;2022-08-01T08:38:29;101306.78;;;17.22;81.89
73143;BME280;61343;53.694;9.988;2022-08-01T08:40:55;101305.66;;;17.51;79.73
73143;BME280;61343;53.694;9.988;2022-08-01T08:43:21;101314.63;;;17.68;78.68
73143;BME280;61343;53.694;9.988;2022-08-01T08:45:49;101305.19;;;17.88;78.50
73143;BME280;61343;53.694;9.988;2022-08-01T08:48:14;101308.38;;;17.84;80.22
73143;BME280;61343;53.694;9.988;2022-08-01T08:50:41;101313.13;;;17.94;78.71
73143;BME280;61343;53.694;9.988;2022-08-01T08:53:09;101310.94;;;18.13;78.10
73143;BME280;61343;53.694;9.988;2022-08-01T08:55:35;101322.69;;;18.40;76.19
73143;BME280;61343;53.694;9.988;2022-08-01T08:58:01;101313.94;;;18.71;76.14
73143;BME280;61343;53.694;9.988;2022-08-01T09:00:31;101320.69;;;18.95;76.07
73143;BME280;61343;53.694;9.988;2022-08-01T09:02:56;101319.97;;;18.78;74.50
73143;BME280;61343;53.694;9.988;2022-08-01T09:05:22;101324.63;;;18.61;74.83
73143;BME280;61343;53.694;9.988;2022-08-01T09:07:51;101328.06;;;18.35;74.17
73143;BME280;61343;53.694;9.988;2022-08-01T09:10:16;101331.41;;;18.42;73.35
73143;BME280;61343;53.694;9.988;2022-08-01T09:13:05;101329.56;;;18.64;73.05
73143;BME280;61343;53.694;9.988;2022-08-01T09:18:04;101336.94;;;18.95;70.05
73143;BME280;61343;53.694;9.988;2022-08-01T09:20:29;101350.75;;;19.16;70.10
73143;BME280;61343;53.694;9.988;2022-08-01T09:22:54;101341.69;;;19.32;70.12
73143;BME280;61343;53.694;9.988;2022-08-01T09:25:20;101342.81;;;19.36;67.85
73143;BME280;61343;53.694;9.988;2022-08-01T09:27:45;101343.44;;;19.43;66.16
73143;BME280;61343;53.694;9.988;2022-08-01T09:30:18;101346.78;;;19.50;65.18
73143;BME280;61343;53.694;9.988;2022-08-01T09:33:05;101352.28;;;19.60;65.81
73143;BME280;61343;53.694;9.988;2022-08-01T09:35:32;101357.94;;;19.54;64.87
73143;BME280;61343;53.694;9.988;2022-08-01T09:38:19;101362.53;;;19.53;65.00
73143;BME280;61343;53.694;9.988;2022-08-01T09:40:56;101360.69;;;19.59;64.78
73143;BME280;61343;53.694;9.988;2022-08-01T09:43:27;101362.88;;;19.62;64.87
73143;BME280;61343;53.694;9.988;2022-08-01T09:45:53;101365.91;;;19.65;64.85
73143;BME280;61343;53.694;9.988;2022-08-01T09:48:20;101373.13;;;19.86;66.33
73143;BME280;61343;53.694;9.988;2022-08-01T09:50:47;101368.69;;;19.75;63.95
73143;BME280;61343;53.694;9.988;2022-08-01T09:53:13;101369.78;;;19.74;63.79
73143;BME280;61343;53.694;9.988;2022-08-01T09:55:40;101377.09;;;19.74;63.00
73143;BME280;61343;53.694;9.988;2022-08-01T09:58:06;101364.59;;;19.73;64.12
73143;BME280;61343;53.694;9.988;2022-08-01T10:00:33;101369.47;;;20.08;64.35
73143;BME280;61343;53.694;9.988;2022-08-01T10:02:59;101372.19;;;20.08;61.45
73143;BME280;61343;53.694;9.988;2022-08-01T10:05:35;101369.78;;;20.11;62.11
73143;BME280;61343;53.694;9.988;2022-08-01T10:08:02;101373.63;;;20.15;63.18
73143;BME280;61343;53.694;9.988;2022-08-01T10:10:29;101363.19;;;20.39;63.47
73143;BME280;61343;53.694;9.988;2022-08-01T10:12:59;101365.41;;;20.47;62.96
73143;BME280;61343;53.694;9.988;2022-08-01T10:15:27;101371.97;;;20.51;61.92
73143;BME280;61343;53.694;9.988;2022-08-01T10:17:55;101369.56;;;20.65;63.20
73143;BME280;61343;53.694;9.988;2022-08-01T10:20:24;101374.22;;;20.69;62.53
73143;BME280;61343;53.694;9.988;2022-08-01T10:22:52;101379.91;;;20.63;59.87
73143;BME280;61343;53.694;9.988;2022-08-01T10:25:19;101366.38;;;20.78;62.40
73143;BME280;61343;53.694;9.988;2022-08-01T10:27:48;101370.31;;;21.12;61.71
73143;BME280;61343;53.694;9.988;2022-08-01T10:30:14;101377.03;;;20.94;59.76
73143;BME280;61343;53.694;9.988;2022-08-01T10:32:39;101365.38;;;20.99;59.63
73143;BME280;61343;53.694;9.988;2022-08-01T10:35:08;101364.09;;;21.22;59.77
73143;BME280;61343;53.694;9.988;2022-08-01T10:37:34;101379.94;;;21.40;57.64
73143;BME280;61343;53.694;9.988;2022-08-01T10:40:03;101378.31;;;21.54;58.18
73143;BME280;61343;53.694;9.988;2022-08-01T10:42:30;101369.56;;;21.47;58.93
73143;BME280;61343;53.694;9.988;2022-08-01T10:44:56;101378.81;;;21.26;58.82
73143;BME280;61343;53.694;9.988;2022-08-01T10:47:31;101377.63;;;21.06;59.43
73143;BME280;61343;53.694;9.988;2022-08-01T10:50:11;101379.59;;;21.21;60.54
73143;BME280;61343;53.694;9.988;2022-08-01T10:52:38;101387.50;;;21.38;58.64
73143;BME280;61343;53.694;9.988;2022-08-01T10:55:07;101372.50;;;21.20;57.50
73143;BME280;61343;53.694;9.988;2022-08-01T10:57:46;101369.88;;;21.40;55.54
73143;BME280;61343;53.694;9.988;2022-08-01T11:00:21;101386.97;;;21.31;53.58
73143;BME280;61343;53.694;9.988;2022-08-01T11:03:00;101392.13;;;21.32;53.38
73143;BME280;61343;53.694;9.988;2022-08-01T11:05:28;101387.75;;;21.26;52.44
73143;BME280;61343;53.694;9.988;2022-08-01T11:07:55;101385.38;;;21.40;54.63
73143;BME280;61343;53.694;9.988;2022-08-01T11:10:41;101386.47;;;21.59;54.67
73143;BME280;61343;53.694;9.988;2022-08-01T11:13:10;101396.81;;;21.77;54.64
73143;BME280;61343;53.694;9.988;2022-08-01T11:15:37;101384.31;;;21.66;54.42
73143;BME280;61343;53.694;9.988;2022-08-01T11:20:59;101388.38;;;21.48;54.19
73143;BME280;61343;53.694;9.988;2022-08-01T11:23:27;101389.19;;;21.54;55.29
73143;BME280;61343;53.694;9.988;2022-08-01T11:28:20;101387.22;;;21.19;54.87
73143;BME280;61343;53.694;9.988;2022-08-01T11:33:16;101401.16;;;21.43;54.82
73143;BME280;61343;53.694;9.988;2022-08-01T11:38:35;101399.25;;;21.48;53.32
73143;BME280;61343;53.694;9.988;2022-08-01T11:41:14;101397.88;;;21.36;54.20
73143;BME280;61343;53.694;9.988;2022-08-01T11:52:04;101407.66;;;21.47;53.66
73143;BME280;61343;53.694;9.988;2022-08-01T11:54:34;101395.44;;;21.49;52.90
73143;BME280;61343;53.694;9.988;2022-08-01T11:57:03;101405.78;;;21.42;54.08
73143;BME280;61343;53.694;9.988;2022-08-01T11:59:35;101403.88;;;21.53;53.44
73143;BME280;61343;53.694;9.988;2022-08-01T12:02:01;101406.06;;;21.56;54.47
73143;BME280;61343;53.694;9.988;2022-08-01T12:04:44;101409.03;;;21.34;55.49
73143;BME280;61343;53.694;9.988;2022-08-01T12:07:14;101406.97;;;20.99;55.99
73143;BME280;61343;53.694;9.988;2022-08-01T12:09:39;101398.41;;;21.28;55.97
73143;BME280;61343;53.694;9.988;2022-08-01T12:12:04;101410.41;;;21.62;55.91
73143;BME280;61343;53.694;9.988;2022-08-01T12:14:30;101420.78;;;21.60;54.66
73143;BME280;61343;53.694;9.988;2022-08-01T12:16:55;101421.28;;;21.37;54.77
73143;BME280;61343;53.694;9.988;2022-08-01T12:19:22;101427.19;;;21.19;53.91
73143;BME280;61343;53.694;9.988;2022-08-01T12:22:08;101416.66;;;21.42;53.81
73143;BME280;61343;53.694;9.988;2022-08-01T12:24:38;101408.81;;;21.61;52.63
73143;BME280;61343;53.694;9.988;2022-08-01T12:27:05;101423.78;;;21.84;52.33
73143;BME280;61343;53.694;9.988;2022-08-01T12:29:32;101422.97;;;21.58;52.40
73143;BME280;61343;53.694;9.988;2022-08-01T12:31:58;101428.47;;;21.93;53.12
73143;BME280;61343;53.694;9.988;2022-08-01T12:34:27;101421.38;;;22.02;51.85
73143;BME280;61343;53.694;9.988;2022-08-01T12:36:55;101425.47;;;22.05;51.97
73143;BME280;61343;53.694;9.988;2022-08-01T12:39:21;101442.63;;;22.05;49.03
73143;BME280;61343;53.694;9.988;2022-08-01T12:41:46;101426.00;;;21.92;50.57
73143;BME280;61343;53.694;9.988;2022-08-01T12:44:15;101433.63;;;21.90;50.62
73143;BME280;61343;53.694;9.988;2022-08-01T12:46:41;101425.19;;;22.01;50.25
73143;BME280;61343;53.694;9.988;2022-08-01T12:49:07;101423.56;;;22.05;51.02
73143;BME280;61343;53.694;9.988;2022-08-01T12:51:33;101425.72;;;22.13;50.56
73143;BME280;61343;53.694;9.988;2022-08-01T12:53:59;101431.44;;;22.12;47.88
73143;BME280;61343;53.694;9.988;2022-08-01T12:56:31;101427.88;;;21.66;49.07
73143;BME280;61343;53.694;9.988;2022-08-01T12:58:58;101428.38;;;21.43;49.96
73143;BME280;61343;53.694;9.988;2022-08-01T13:01:27;101422.38;;;21.46;50.05
73143;BME280;61343;53.694;9.988;2022-08-01T13:04:00;101428.38;;;21.43;49.66
73143;BME280;61343;53.694;9.988;2022-08-01T13:06:28;101421.84;;;21.49;49.75
73143;BME280;61343;53.694;9.988;2022-08-01T13:08:54;101426.75;;;21.62;50.54
73143;BME280;61343;53.694;9.988;2022-08-01T13:11:19;101426.75;;;21.52;50.68
73143;BME280;61343;53.694;9.988;2022-08-01T13:13:46;101430.03;;;21.64;48.55
73143;BME280;61343;53.694;9.988;2022-08-01T13:16:12;101425.69;;;21.78;49.96
73143;BME280;61343;53.694;9.988;2022-08-01T13:18:38;101431.13;;;21.58;49.23
73143;BME280;61343;53.694;9.988;2022-08-01T13:21:08;101424.31;;;21.60;50.01
73143;BME280;61343;53.694;9.988;2022-08-01T13:23:35;101425.06;;;21.41;49.74